Walberton, United Kingdom
Current Conditions -  °F | °C
As of 12:20 PM on Monday 22 Dec 2014 (Local Time) from EGKA Reporting Station
Few Clouds Few Clouds  
Wind Chill: 12°   Ceiling: Unl
Heat Index: 12°   Visibility: 6mi
Dew Point: 10°   Wind: 24mph
Humidity: 88%   Direction: 250°WSW
Pressure: 30.12"   Gusts: 36mph
Location:  50.84°N, 0.62°W
Report Text: EGKA 221220Z 25021G31KT 9000 FEW009 12/10 Q1020
Loading
Personal Weather Stations






























Interactive Weather Map New forecast layout! Learn more

10-Day Weather Forecast

Advertisements
Track Severe Weather on mobile